Time;durP1;ratioP1;P1;durP2;ratioP2;P2;SDS_P1;SDS_P2;PMS_P1;PMS_P2;Temp;Humidity;BMP_temperature;BMP_pressure;BME280_temperature;BME280_humidity;BME280_pressure;Samples;Min_cycle;Max_cycle;Signal;HPM_P1;HPM_P2
2021/01/22 00:00:22;;;;;;;2.40;0.63;;;9.50;80.70;;;;;;5112366;28;20457;-77
2021/01/22 00:02:49;;;;;;;2.73;0.97;;;9.40;81.10;;;;;;5113502;28;20377;-78
2021/01/22 00:05:15;;;;;;;1.95;0.70;;;9.50;80.50;;;;;;5111981;28;20888;-78
2021/01/22 00:07:41;;;;;;;2.85;0.70;;;9.50;80.20;;;;;;5113411;28;20400;-78
2021/01/22 00:10:07;;;;;;;2.05;0.70;;;9.40;80.70;;;;;;5113167;28;20443;-78
2021/01/22 00:12:33;;;;;;;3.63;0.60;;;9.50;80.30;;;;;;5113459;28;20668;-78
2021/01/22 00:14:59;;;;;;;1.17;0.50;;;9.50;80.00;;;;;;5112122;28;20380;-78
2021/01/22 00:17:24;;;;;;;2.83;0.47;;;9.50;80.10;;;;;;5112898;28;20434;-78
2021/01/22 00:19:50;;;;;;;3.13;0.70;;;9.70;79.50;;;;;;5111502;28;20436;-78
2021/01/22 00:22:15;;;;;;;2.20;0.60;;;9.80;79.00;;;;;;5113129;28;20437;-78
2021/01/22 00:24:41;;;;;;;4.10;0.50;;;9.50;80.20;;;;;;5112913;28;20376;-78
2021/01/22 00:27:06;;;;;;;1.60;0.60;;;9.60;80.90;;;;;;5111544;28;20464;-78
2021/01/22 00:29:32;;;;;;;2.00;0.65;;;9.30;82.80;;;;;;5112785;28;20381;-78
2021/01/22 00:31:57;;;;;;;3.30;0.70;;;9.20;84.00;;;;;;5113299;28;20840;-78
2021/01/22 00:34:23;;;;;;;1.73;0.57;;;9.10;84.60;;;;;;5111099;28;20809;-78
2021/01/22 00:36:49;;;;;;;0.80;0.50;;;9.00;86.60;;;;;;5112321;28;20380;-78
2021/01/22 00:39:15;;;;;;;0.60;0.55;;;8.90;85.70;;;;;;5113045;28;20414;-78
2021/01/22 00:41:41;;;;;;;2.42;0.65;;;9.00;85.40;;;;;;5111564;28;20392;-77
2021/01/22 00:44:07;;;;;;;2.80;0.60;;;9.00;85.90;;;;;;5113080;28;20376;-77
2021/01/22 00:46:32;;;;;;;1.90;0.50;;;9.00;85.40;;;;;;5112450;28;20415;-77
2021/01/22 00:48:58;;;;;;;1.40;0.60;;;8.90;86.10;;;;;;5113017;28;20380;-77
2021/01/22 00:51:23;;;;;;;2.30;0.57;;;8.90;85.90;;;;;;5112727;28;20845;-77
2021/01/22 00:53:49;;;;;;;2.85;0.70;;;9.00;86.10;;;;;;5112983;28;20398;-77
2021/01/22 00:56:15;;;;;;;2.85;0.57;;;9.00;86.20;;;;;;5112513;28;20392;-77
2021/01/22 00:58:40;;;;;;;5.13;0.90;;;8.90;86.50;;;;;;5112065;28;20417;-77
2021/01/22 01:01:06;;;;;;;2.90;0.85;;;8.90;87.30;;;;;;5111224;28;20381;-77
2021/01/22 01:03:31;;;;;;;3.65;0.70;;;8.80;87.60;;;;;;5112770;28;20467;-77
2021/01/22 01:05:57;;;;;;;4.90;0.80;;;8.70;88.30;;;;;;5112250;28;20369;-77
2021/01/22 01:08:22;;;;;;;2.73;1.00;;;8.70;88.80;;;;;;5111531;28;20894;-77
2021/01/22 01:10:48;;;;;;;3.57;0.90;;;8.50;89.60;;;;;;5110850;28;21053;-77
2021/01/22 01:13:14;;;;;;;4.47;0.87;;;8.50;89.20;;;;;;5110796;28;20383;-76
2021/01/22 01:15:39;;;;;;;6.80;0.90;;;8.60;89.30;;;;;;5112539;28;20369;-76
2021/01/22 01:18:05;;;;;;;6.73;1.00;;;8.60;88.70;;;;;;5111381;28;20464;-76
2021/01/22 01:20:31;;;;;;;5.43;0.90;;;8.50;89.30;;;;;;5112075;28;20376;-77
2021/01/22 01:22:58;;;;;;;4.70;0.90;;;8.40;90.10;;;;;;5111736;28;20456;-77
2021/01/22 01:25:23;;;;;;;3.40;1.10;;;8.50;89.70;;;;;;5112001;28;20437;-77
2021/01/22 01:27:49;;;;;;;7.93;1.40;;;8.50;89.00;;;;;;5110969;28;20372;-77
2021/01/22 01:30:16;;;;;;;6.90;0.90;;;8.40;90.10;;;;;;5111889;28;20380;-77
2021/01/22 01:32:41;;;;;;;6.55;1.25;;;8.50;89.30;;;;;;5109822;28;20389;-77
2021/01/22 01:35:08;;;;;;;5.10;1.40;;;8.70;88.10;;;;;;5111627;28;20448;-77
2021/01/22 01:37:33;;;;;;;8.95;1.73;;;8.40;89.80;;;;;;5110999;28;20408;-77
2021/01/22 01:39:59;;;;;;;8.93;1.13;;;8.70;87.30;;;;;;5111427;28;20844;-77
2021/01/22 01:42:25;;;;;;;7.47;1.27;;;8.80;86.70;;;;;;5111578;28;20391;-77
2021/01/22 01:44:50;;;;;;;5.90;1.20;;;8.70;88.20;;;;;;5111350;28;20365;-77
2021/01/22 01:47:16;;;;;;;5.05;0.98;;;8.60;88.00;;;;;;5111213;28;20369;-77
2021/01/22 01:49:42;;;;;;;6.47;1.92;;;8.70;87.70;;;;;;5111277;28;20384;-77
2021/01/22 01:52:08;;;;;;;8.85;1.20;;;8.60;88.30;;;;;;5110236;28;20526;-77
2021/01/22 01:55:18;;;;;;;5.07;0.98;;;8.60;87.70;;;;;;5110099;28;20391;-77
2021/01/22 01:57:43;;;;;;;6.47;1.03;;;8.80;87.70;;;;;;5109942;28;20760;-77
2021/01/22 02:00:09;;;;;;;6.83;1.00;;;8.60;88.20;;;;;;5111378;28;20404;-77
2021/01/22 02:02:35;;;;;;;5.38;1.20;;;8.70;87.60;;;;;;5111229;28;20444;-77
2021/01/22 02:05:00;;;;;;;11.17;1.23;;;8.60;88.10;;;;;;5111671;28;20868;-77
2021/01/22 02:07:26;;;;;;;8.73;1.10;;;8.90;87.20;;;;;;5110518;28;20459;-77
2021/01/22 02:09:52;;;;;;;7.97;0.90;;;8.70;88.00;;;;;;5110946;28;20942;-77
2021/01/22 02:12:19;;;;;;;7.87;0.97;;;8.70;88.00;;;;;;5111159;28;20422;-77
2021/01/22 02:14:46;;;;;;;2.47;0.68;;;8.50;89.40;;;;;;5111064;28;20729;-76
2021/01/22 02:17:12;;;;;;;2.63;1.50;;;8.30;90.10;;;;;;5109483;28;20400;-77
2021/01/22 02:19:56;;;;;;;1.93;0.70;;;7.70;88.90;;;;;;5110779;28;20396;-76
2021/01/22 02:22:22;;;;;;;1.08;0.40;;;7.20;89.10;;;;;;5111031;28;20400;-76
2021/01/22 02:24:49;;;;;;;0.97;0.50;;;6.80;90.60;;;;;;5110726;28;20733;-76
2021/01/22 02:27:17;;;;;;;4.15;0.80;;;6.60;91.80;;;;;;5109272;28;20470;-76
2021/01/22 02:29:43;;;;;;;2.75;0.60;;;6.50;91.90;;;;;;5110664;28;20387;-76
2021/01/22 02:32:12;;;;;;;2.83;0.90;;;6.40;92.70;;;;;;5109290;28;20384;-76
2021/01/22 02:34:42;;;;;;;1.25;0.80;;;6.20;92.30;;;;;;5110864;28;20449;-76
2021/01/22 02:37:13;;;;;;;0.90;0.73;;;6.20;91.80;;;;;;5110167;28;20400;-76
2021/01/22 02:39:42;;;;;;;3.00;1.10;;;6.10;92.40;;;;;;5109422;28;20392;-76
2021/01/22 02:42:09;;;;;;;1.85;1.42;;;5.90;92.70;;;;;;5110645;28;20381;-75
2021/01/22 02:44:36;;;;;;;3.05;2.00;;;5.70;92.50;;;;;;5114130;28;20411;-76
2021/01/22 02:47:08;;;;;;;4.68;2.80;;;5.50;92.70;;;;;;5114381;28;20408;-76
2021/01/22 02:49:34;;;;;;;5.00;2.88;;;5.30;92.20;;;;;;5113747;28;20384;-76
2021/01/22 02:51:59;;;;;;;2.88;2.20;;;5.20;92.40;;;;;;5114932;28;20384;-76
2021/01/22 02:54:25;;;;;;;3.50;2.60;;;5.10;91.90;;;;;;5115043;28;20737;-76
2021/01/22 02:57:45;;;;;;;4.03;2.80;;;4.90;91.90;;;;;;5114167;28;20436;-76
2021/01/22 03:00:18;;;;;;;7.43;3.40;;;4.70;91.40;;;;;;5090149;28;20980;-76
2021/01/22 03:02:55;;;;;;;4.70;3.70;;;4.60;92.30;;;;;;5114611;28;20421;-76
2021/01/22 03:05:26;;;;;;;5.63;3.47;;;4.70;92.50;;;;;;5114533;28;20438;-76
2021/01/22 03:07:58;;;;;;;4.13;3.03;;;4.60;92.70;;;;;;5114669;28;20436;-76
2021/01/22 03:10:26;;;;;;;5.57;3.28;;;4.50;92.50;;;;;;5114052;28;20503;-76
2021/01/22 03:12:56;;;;;;;4.95;2.95;;;4.40;92.60;;;;;;5114185;28;20418;-76
2021/01/22 03:15:22;;;;;;;6.07;4.45;;;4.30;92.70;;;;;;5114179;28;20504;-76
2021/01/22 03:17:48;;;;;;;8.90;4.95;;;4.40;92.70;;;;;;5113821;28;20379;-76
2021/01/22 03:20:15;;;;;;;6.72;5.00;;;4.20;92.30;;;;;;5113023;28;20396;-76
2021/01/22 03:22:41;;;;;;;9.43;5.72;;;4.10;92.40;;;;;;5114034;28;20432;-77
2021/01/22 03:25:12;;;;;;;8.00;5.33;;;4.10;92.70;;;;;;5113105;28;20376;-76
2021/01/22 03:27:38;;;;;;;5.40;4.00;;;4.20;92.60;;;;;;5113546;28;20509;-76
2021/01/22 03:30:05;;;;;;;6.05;4.80;;;4.10;92.30;;;;;;5112966;28;20952;-76
2021/01/22 03:32:31;;;;;;;7.63;5.13;;;4.10;92.70;;;;;;5112574;28;20722;-77
2021/01/22 03:34:56;;;;;;;8.85;5.00;;;4.10;93.60;;;;;;5112769;28;20399;-76
2021/01/22 03:37:22;;;;;;;8.95;5.18;;;4.00;93.40;;;;;;5112132;28;20912;-77
2021/01/22 03:39:47;;;;;;;7.78;5.30;;;4.00;93.50;;;;;;5113743;28;20741;-77
2021/01/22 03:42:13;;;;;;;7.15;4.90;;;4.00;92.80;;;;;;5114015;28;20917;-76
2021/01/22 03:44:38;;;;;;;5.57;4.57;;;3.90;93.30;;;;;;5113965;28;20385;-76
2021/01/22 03:47:06;;;;;;;6.43;4.45;;;3.80;92.90;;;;;;5113454;28;20380;-76
2021/01/22 03:49:32;;;;;;;10.05;5.03;;;3.80;93.20;;;;;;5113703;28;20713;-76
2021/01/22 03:51:59;;;;;;;6.95;4.38;;;3.70;92.90;;;;;;5113809;28;20372;-77
2021/01/22 03:54:25;;;;;;;7.18;4.93;;;3.70;93.00;;;;;;5113413;28;20380;-77
2021/01/22 03:56:50;;;;;;;6.90;4.88;;;3.80;92.30;;;;;;5113004;28;20880;-77
2021/01/22 03:59:16;;;;;;;6.40;4.68;;;3.70;92.90;;;;;;5113339;28;20499;-77
2021/01/22 04:01:41;;;;;;;7.05;5.13;;;3.70;93.10;;;;;;5113626;28;20388;-77
2021/01/22 04:04:07;;;;;;;6.60;4.93;;;3.70;92.50;;;;;;5112097;28;20476;-76
2021/01/22 04:06:33;;;;;;;8.80;5.03;;;3.80;93.00;;;;;;5112180;28;20729;-76
2021/01/22 04:08:58;;;;;;;7.85;5.00;;;3.70;93.30;;;;;;5113100;28;20384;-77
2021/01/22 04:11:24;;;;;;;10.00;4.90;;;3.80;93.20;;;;;;5113221;28;20784;-76
2021/01/22 04:13:49;;;;;;;8.35;4.97;;;3.80;93.40;;;;;;5113598;28;20403;-77
2021/01/22 04:16:15;;;;;;;7.53;5.03;;;3.70;93.50;;;;;;5113229;28;20857;-76
2021/01/22 04:18:41;;;;;;;9.90;5.32;;;3.70;93.30;;;;;;5111671;28;20405;-77
2021/01/22 04:21:07;;;;;;;9.33;5.60;;;3.70;92.80;;;;;;5112995;28;20518;-76
2021/01/22 04:23:33;;;;;;;9.18;5.30;;;3.70;93.00;;;;;;5113393;28;20845;-76
2021/01/22 04:25:59;;;;;;;10.23;4.63;;;3.60;93.00;;;;;;5113216;28;20404;-76
2021/01/22 04:28:24;;;;;;;9.35;5.47;;;3.50;93.30;;;;;;5112944;28;20419;-76
2021/01/22 04:30:50;;;;;;;8.45;4.40;;;3.50;92.70;;;;;;5113014;28;20841;-76
2021/01/22 04:33:15;;;;;;;8.48;5.15;;;3.50;92.70;;;;;;5112889;28;20706;-77
2021/01/22 04:35:41;;;;;;;9.27;5.38;;;3.50;93.40;;;;;;5113019;28;20385;-76
2021/01/22 04:38:07;;;;;;;10.05;6.35;;;3.50;93.40;;;;;;5112329;28;20408;-77
2021/01/22 04:40:32;;;;;;;9.48;6.40;;;3.50;93.40;;;;;;5113588;28;20441;-77
2021/01/22 04:42:58;;;;;;;10.27;6.20;;;3.40;93.50;;;;;;5111669;28;20403;-78
2021/01/22 04:45:23;;;;;;;11.47;7.07;;;3.40;93.50;;;;;;5113481;28;20383;-78
2021/01/22 04:47:49;;;;;;;10.73;7.03;;;3.50;93.80;;;;;;5112247;28;20384;-78
2021/01/22 04:50:17;;;;;;;13.43;8.20;;;3.40;93.70;;;;;;5113599;28;20385;-77
2021/01/22 04:52:46;;;;;;;13.70;8.50;;;3.50;93.70;;;;;;5112796;28;20425;-77
2021/01/22 04:55:14;;;;;;;14.55;7.15;;;3.50;93.50;;;;;;5112979;28;20385;-77
2021/01/22 04:57:45;;;;;;;11.10;7.28;;;3.40;93.60;;;;;;5112438;28;20703;-77
2021/01/22 05:00:12;;;;;;;13.60;7.85;;;3.40;93.20;;;;;;5112758;28;20444;-77
2021/01/22 05:02:38;;;;;;;11.63;6.75;;;3.40;93.70;;;;;;5112953;28;20388;-77
2021/01/22 05:05:06;;;;;;;10.37;6.90;;;3.40;93.20;;;;;;5111521;28;20384;-77
2021/01/22 05:07:32;;;;;;;9.50;6.63;;;3.40;93.50;;;;;;5109841;28;20380;-77
2021/01/22 05:09:58;;;;;;;8.80;6.03;;;3.40;93.30;;;;;;5112208;28;20392;-77
2021/01/22 05:12:32;;;;;;;10.05;5.82;;;3.40;93.10;;;;;;5112325;28;20372;-77
2021/01/22 05:15:10;;;;;;;11.50;6.77;;;3.40;92.90;;;;;;5111018;28;20423;-77
2021/01/22 05:17:51;;;;;;;10.63;6.65;;;3.40;93.20;;;;;;5111550;28;20793;-77
2021/01/22 05:20:29;;;;;;;11.57;6.53;;;3.40;93.30;;;;;;5093739;28;20517;-77
2021/01/22 05:22:55;;;;;;;9.30;6.45;;;3.40;93.30;;;;;;5112136;28;20707;-77
2021/01/22 05:25:21;;;;;;;9.65;7.03;;;3.40;93.30;;;;;;5110402;28;20861;-77
2021/01/22 05:27:48;;;;;;;8.48;5.97;;;3.40;92.90;;;;;;5111269;28;20388;-78
2021/01/22 05:30:15;;;;;;;9.03;6.30;;;3.40;92.80;;;;;;5112025;28;20429;-78
2021/01/22 05:32:40;;;;;;;11.70;6.37;;;3.40;92.70;;;;;;5110225;28;20384;-77
2021/01/22 05:35:07;;;;;;;10.25;7.03;;;3.40;92.70;;;;;;5111845;28;20380;-77
2021/01/22 05:37:32;;;;;;;11.75;7.30;;;3.40;93.00;;;;;;5111070;28;20391;-78
2021/01/22 05:40:11;;;;;;;11.73;6.87;;;3.40;92.70;;;;;;5111390;28;20502;-78
2021/01/22 05:42:47;;;;;;;11.93;7.88;;;3.40;92.30;;;;;;5111498;28;20615;-77
2021/01/22 05:45:14;;;;;;;13.65;7.72;;;3.50;92.30;;;;;;5110010;28;20475;-77
2021/01/22 05:47:40;;;;;;;12.00;7.60;;;3.50;92.10;;;;;;5109591;28;20894;-77
2021/01/22 05:50:07;;;;;;;11.95;7.78;;;3.50;92.10;;;;;;5111297;28;20471;-78
2021/01/22 05:52:33;;;;;;;14.33;7.93;;;3.50;92.40;;;;;;5111599;28;20412;-77
2021/01/22 05:54:59;;;;;;;13.25;7.68;;;3.50;92.10;;;;;;5111175;28;20786;-77
2021/01/22 05:57:25;;;;;;;12.93;8.32;;;3.50;92.30;;;;;;5111205;27;20475;-78
2021/01/22 06:00:10;;;;;;;13.25;8.10;;;3.50;92.80;;;;;;5110855;28;20941;-78
2021/01/22 06:02:35;;;;;;;15.13;9.18;;;3.50;92.00;;;;;;5109948;28;20499;-77
2021/01/22 06:05:12;;;;;;;14.25;8.43;;;3.50;92.10;;;;;;5111210;28;20468;-78
2021/01/22 06:07:40;;;;;;;15.15;8.70;;;3.50;92.20;;;;;;5110749;28;20380;-78
2021/01/22 06:10:34;;;;;;;13.43;8.80;;;3.50;91.90;;;;;;5110479;28;20408;-77
2021/01/22 06:13:03;;;;;;;15.35;9.10;;;3.50;92.30;;;;;;5107599;28;20730;-77
2021/01/22 06:15:30;;;;;;;17.70;9.25;;;3.50;92.50;;;;;;5109778;28;20373;-77
2021/01/22 06:17:57;;;;;;;16.83;9.75;;;3.50;92.60;;;;;;5108134;28;20939;-77
2021/01/22 06:20:24;;;;;;;16.20;9.55;;;3.60;92.70;;;;;;5110476;28;20443;-77
2021/01/22 06:23:11;;;;;;;15.07;9.73;;;3.60;92.30;;;;;;5108227;28;20387;-77
2021/01/22 06:25:41;;;;;;;15.60;9.02;;;3.60;92.40;;;;;;5109729;28;20463;-77
2021/01/22 06:28:07;;;;;;;18.23;9.07;;;3.60;92.10;;;;;;5108944;28;20427;-77
2021/01/22 06:30:34;;;;;;;15.63;9.10;;;3.60;92.30;;;;;;5111002;28;20418;-78
2021/01/22 06:33:02;;;;;;;15.48;8.85;;;3.70;91.90;;;;;;5111267;28;20392;-77
2021/01/22 06:35:33;;;;;;;16.77;9.55;;;3.70;92.10;;;;;;5110362;28;20816;-77
2021/01/22 06:38:01;;;;;;;15.10;9.40;;;3.70;92.20;;;;;;5109132;28;20392;-77
2021/01/22 06:40:27;;;;;;;16.88;8.95;;;3.80;92.40;;;;;;5110615;28;20403;-77
2021/01/22 06:42:54;;;;;;;16.45;8.75;;;3.80;92.00;;;;;;5110553;28;20434;-78
2021/01/22 06:45:21;;;;;;;13.98;8.38;;;3.70;92.00;;;;;;5109259;28;20869;-77
2021/01/22 06:48:03;;;;;;;13.37;8.07;;;3.80;92.00;;;;;;5110135;28;20745;-77
2021/01/22 06:50:29;;;;;;;13.68;8.38;;;3.80;91.30;;;;;;5110594;28;20452;-78
2021/01/22 06:53:09;;;;;;;13.45;7.93;;;3.90;91.70;;;;;;5110680;28;20376;-78
2021/01/22 06:55:54;;;;;;;13.95;8.38;;;3.90;91.40;;;;;;5110491;28;20399;-78
2021/01/22 06:58:30;;;;;;;14.00;8.18;;;3.90;91.40;;;;;;5109802;28;20763;-77
2021/01/22 07:01:00;;;;;;;14.73;8.48;;;3.90;91.70;;;;;;5109316;28;20453;-77
2021/01/22 07:03:35;;;;;;;15.27;8.73;;;3.90;91.60;;;;;;5106148;28;20449;-78
2021/01/22 07:06:01;;;;;;;14.88;8.68;;;3.90;92.00;;;;;;5110280;28;20861;-78
2021/01/22 07:08:48;;;;;;;12.95;8.07;;;3.90;91.70;;;;;;5107142;28;20388;-77
2021/01/22 07:11:14;;;;;;;14.43;9.03;;;3.90;91.70;;;;;;5108805;28;20471;-78
2021/01/22 07:13:42;;;;;;;15.57;8.60;;;3.90;91.90;;;;;;5109362;28;20395;-78
2021/01/22 07:16:23;;;;;;;13.38;7.63;;;4.00;91.70;;;;;;5110279;28;20494;-77
2021/01/22 07:18:52;;;;;;;16.10;7.78;;;4.00;91.50;;;;;;5110119;28;20415;-77
2021/01/22 07:21:24;;;;;;;17.27;7.80;;;4.00;91.60;;;;;;5108985;28;20483;-78
2021/01/22 07:23:54;;;;;;;14.68;8.43;;;4.00;91.40;;;;;;5110603;28;20410;-77
2021/01/22 07:26:19;;;;;;;13.43;7.28;;;3.90;91.80;;;;;;5108896;28;20384;-77
2021/01/22 07:28:52;;;;;;;17.70;7.87;;;4.00;91.70;;;;;;5109987;28;20822;-77
2021/01/22 07:31:56;;;;;;;15.40;7.38;;;4.00;91.20;;;;;;5112680;28;20403;-77
2021/01/22 07:34:37;;;;;;;13.73;6.90;;;4.00;90.90;;;;;;5113975;28;20383;-78
2021/01/22 07:37:07;;;;;;;13.23;7.05;;;4.00;90.80;;;;;;5113815;28;20702;-77
2021/01/22 07:39:33;;;;;;;15.67;7.47;;;4.00;91.00;;;;;;5113696;28;20606;-77
2021/01/22 07:42:16;;;;;;;15.68;7.10;;;4.10;91.00;;;;;;5114013;28;20389;-78
2021/01/22 07:44:44;;;;;;;20.10;7.35;;;4.00;90.80;;;;;;5112560;28;20396;-77
2021/01/22 07:47:21;;;;;;;13.20;6.80;;;4.10;90.80;;;;;;5112223;27;20729;-77
2021/01/22 07:49:56;;;;;;;16.08;7.22;;;4.10;90.90;;;;;;5112133;28;20792;-78
2021/01/22 07:52:21;;;;;;;14.93;7.10;;;4.10;90.80;;;;;;5112024;28;20395;-77
2021/01/22 07:54:47;;;;;;;14.55;7.00;;;4.10;91.00;;;;;;5114002;28;20376;-78
2021/01/22 07:57:23;;;;;;;17.17;7.23;;;4.10;90.80;;;;;;5113075;28;20469;-77
2021/01/22 07:59:50;;;;;;;16.83;7.03;;;4.20;89.90;;;;;;5113231;28;20408;-78
2021/01/22 08:02:21;;;;;;;15.50;7.63;;;4.10;90.60;;;;;;5113306;28;20473;-78
2021/01/22 08:05:00;;;;;;;15.27;7.28;;;4.20;90.00;;;;;;5113640;28;20414;-77
2021/01/22 08:07:40;;;;;;;14.88;7.43;;;4.30;90.30;;;;;;5111305;28;20732;-78
2021/01/22 08:10:11;;;;;;;13.80;7.35;;;4.30;90.20;;;;;;5111957;28;20454;-77
2021/01/22 08:12:38;;;;;;;16.40;8.02;;;4.20;90.70;;;;;;5113316;28;20444;-77
2021/01/22 08:15:17;;;;;;;15.07;7.95;;;4.20;90.80;;;;;;5112734;28;20385;-77
2021/01/22 08:17:44;;;;;;;16.73;8.43;;;4.30;90.10;;;;;;5112799;28;20377;-78
2021/01/22 08:20:10;;;;;;;14.63;8.88;;;4.30;90.70;;;;;;5112956;28;20745;-77
2021/01/22 08:22:36;;;;;;;21.45;10.10;;;4.30;91.00;;;;;;5113005;28;20381;-78
2021/01/22 08:25:02;;;;;;;17.05;9.13;;;4.30;91.10;;;;;;5112881;28;20383;-77
2021/01/22 08:27:28;;;;;;;20.90;9.37;;;4.30;90.60;;;;;;5112607;28;20400;-77
2021/01/22 08:29:54;;;;;;;16.70;8.67;;;4.30;90.70;;;;;;5145889;27;20388;-77
2021/01/22 08:32:20;;;;;;;17.50;8.45;;;4.30;91.00;;;;;;5112783;28;20399;-77
2021/01/22 08:34:46;;;;;;;21.40;9.23;;;4.40;90.20;;;;;;5112627;28;20365;-78
2021/01/22 08:37:13;;;;;;;18.95;9.07;;;4.30;90.60;;;;;;5112261;28;20368;-78
2021/01/22 08:39:46;;;;;;;15.88;8.32;;;4.40;90.20;;;;;;5112791;27;20807;-78
2021/01/22 08:42:13;;;;;;;20.15;9.45;;;4.40;90.10;;;;;;5111601;28;20475;-76
2021/01/22 08:44:55;;;;;;;20.73;9.23;;;4.40;90.70;;;;;;5112935;27;20377;-76
2021/01/22 08:47:21;;;;;;;18.13;8.50;;;4.50;90.40;;;;;;5110700;28;20423;-77
2021/01/22 08:49:58;;;;;;;20.70;9.32;;;4.60;90.40;;;;;;5110984;28;20398;-77
2021/01/22 08:52:24;;;;;;;18.70;8.60;;;4.50;90.00;;;;;;5111082;28;20757;-77
2021/01/22 08:54:53;;;;;;;18.48;9.30;;;4.60;90.00;;;;;;5111074;28;20388;-77
2021/01/22 08:57:19;;;;;;;19.83;9.33;;;4.60;90.30;;;;;;5112234;28;20388;-76
2021/01/22 08:59:58;;;;;;;15.38;8.85;;;4.60;89.90;;;;;;5112108;27;20865;-76
2021/01/22 09:02:38;;;;;;;18.95;8.75;;;4.60;89.60;;;;;;5112368;28;20441;-78
2021/01/22 09:05:16;;;;;;;21.95;9.05;;;4.60;90.00;;;;;;5112116;28;20383;-78
2021/01/22 09:07:42;;;;;;;20.67;8.90;;;4.60;90.20;;;;;;5111933;28;20853;-78
2021/01/22 09:10:23;;;;;;;19.40;8.45;;;4.60;89.80;;;;;;5112008;27;20812;-78
2021/01/22 09:12:49;;;;;;;18.48;8.18;;;4.70;89.80;;;;;;5111910;28;20383;-78
2021/01/22 09:15:16;;;;;;;16.40;7.97;;;4.60;89.70;;;;;;5112399;28;20832;-78
2021/01/22 09:17:53;;;;;;;16.17;8.82;;;4.60;89.50;;;;;;5111640;28;20377;-78
2021/01/22 09:20:27;;;;;;;17.65;8.68;;;4.70;89.60;;;;;;5112117;28;20495;-79
2021/01/22 09:22:54;;;;;;;14.60;7.37;;;4.70;90.50;;;;;;5111865;28;20415;-78
2021/01/22 09:25:23;;;;;;;19.10;7.20;;;4.80;89.40;;;;;;5112113;28;20806;-79
2021/01/22 09:27:50;;;;;;;20.95;7.32;;;4.80;88.90;;;;;;5111000;28;20879;-78
2021/01/22 09:30:18;;;;;;;16.35;7.75;;;4.80;88.90;;;;;;5110637;28;20565;-78
2021/01/22 09:32:45;;;;;;;15.43;7.80;;;4.90;89.20;;;;;;5110639;28;20427;-75
2021/01/22 09:35:11;;;;;;;20.02;6.90;;;4.90;89.50;;;;;;5110867;28;20770;-78
2021/01/22 09:37:37;;;;;;;13.00;6.60;;;4.90;88.20;;;;;;5111010;28;20463;-78
2021/01/22 09:40:06;;;;;;;13.30;6.53;;;4.90;88.30;;;;;;5111232;28;20436;-78
2021/01/22 09:42:33;;;;;;;13.38;6.88;;;4.90;88.60;;;;;;5111677;28;20372;-78
2021/01/22 09:44:58;;;;;;;14.18;6.78;;;5.00;89.00;;;;;;5111458;28;20392;-78
2021/01/22 09:47:24;;;;;;;18.43;7.17;;;5.00;88.50;;;;;;5111254;28;20373;-78
2021/01/22 09:49:50;;;;;;;13.93;6.20;;;5.10;88.60;;;;;;5109883;28;20525;-77
2021/01/22 09:52:16;;;;;;;14.75;6.32;;;5.10;88.10;;;;;;5111270;28;20388;-78
2021/01/22 09:54:42;;;;;;;12.63;7.07;;;5.10;88.40;;;;;;5111374;28;20396;-78
2021/01/22 09:57:08;;;;;;;13.30;6.63;;;5.10;88.40;;;;;;5111286;27;20489;-78
2021/01/22 09:59:34;;;;;;;12.88;6.28;;;5.10;88.50;;;;;;5111154;28;20896;-78
2021/01/22 10:01:59;;;;;;;13.67;6.77;;;5.20;87.40;;;;;;5111028;28;20405;-78
2021/01/22 10:04:25;;;;;;;14.10;5.90;;;5.20;88.30;;;;;;5111398;28;20447;-78
2021/01/22 10:06:50;;;;;;;10.30;5.88;;;5.10;88.00;;;;;;5110796;28;20396;-78
2021/01/22 10:09:16;;;;;;;14.35;6.55;;;5.10;87.50;;;;;;5111392;28;20389;-78
2021/01/22 10:11:42;;;;;;;14.03;6.17;;;5.20;87.60;;;;;;5111049;28;20369;-78
2021/01/22 10:14:08;;;;;;;15.23;5.65;;;5.20;87.50;;;;;;5111287;28;20375;-78
2021/01/22 10:16:34;;;;;;;13.90;6.32;;;5.30;87.90;;;;;;5110840;28;20376;-78
2021/01/22 10:19:00;;;;;;;12.00;5.90;;;5.20;88.40;;;;;;5109885;28;20769;-77
2021/01/22 10:21:26;;;;;;;12.43;6.00;;;5.30;88.60;;;;;;5111191;28;20389;-78
2021/01/22 10:23:52;;;;;;;16.02;5.78;;;5.20;88.00;;;;;;5111472;28;20375;-78
2021/01/22 10:26:20;;;;;;;14.00;6.30;;;5.20;87.40;;;;;;5111166;28;20464;-77
2021/01/22 10:28:46;;;;;;;18.95;6.07;;;5.40;87.70;;;;;;5110482;28;20383;-78
2021/01/22 10:31:13;;;;;;;13.60;5.60;;;5.40;87.70;;;;;;5106744;28;20384;-78
2021/01/22 10:33:38;;;;;;;12.43;5.45;;;5.30;87.70;;;;;;5111134;28;20385;-78
2021/01/22 10:36:05;;;;;;;13.98;5.95;;;5.40;87.80;;;;;;5110334;28;20384;-78
2021/01/22 10:38:32;;;;;;;13.23;6.37;;;5.40;86.90;;;;;;5108701;28;20392;-78
2021/01/22 10:40:58;;;;;;;13.73;5.50;;;5.40;87.00;;;;;;5110903;28;20439;-78
2021/01/22 10:43:24;;;;;;;10.07;5.70;;;5.40;87.90;;;;;;5110834;28;20380;-77
2021/01/22 10:45:50;;;;;;;15.77;6.10;;;5.40;87.10;;;;;;5111010;28;20376;-78
2021/01/22 10:48:17;;;;;;;12.18;5.95;;;5.40;87.50;;;;;;5110076;28;20404;-78
2021/01/22 10:50:43;;;;;;;13.85;6.03;;;5.50;87.40;;;;;;5111453;28;20470;-79
2021/01/22 10:53:08;;;;;;;14.48;5.57;;;5.50;87.00;;;;;;5110360;28;20376;-78
2021/01/22 10:55:34;;;;;;;13.30;5.73;;;5.60;87.00;;;;;;5109691;28;20381;-78
2021/01/22 10:57:59;;;;;;;11.00;5.30;;;5.60;87.00;;;;;;5109326;28;20521;-78
2021/01/22 11:00:25;;;;;;;8.87;5.07;;;5.50;86.00;;;;;;5110509;28;20420;-78
2021/01/22 11:02:51;;;;;;;13.93;5.15;;;5.60;86.70;;;;;;5110453;28;20388;-78
2021/01/22 11:05:16;;;;;;;13.53;5.20;;;5.60;86.20;;;;;;5113279;28;20376;-78
2021/01/22 11:07:42;;;;;;;14.13;5.72;;;5.50;85.80;;;;;;5114341;28;20419;-77
2021/01/22 11:10:08;;;;;;;9.63;4.72;;;5.50;86.20;;;;;;5113264;28;20404;-78
2021/01/22 11:12:34;;;;;;;11.45;5.00;;;5.60;86.10;;;;;;5112901;28;20876;-78
2021/01/22 11:15:00;;;;;;;13.63;5.27;;;5.60;85.70;;;;;;5113998;28;20405;-78
2021/01/22 11:17:25;;;;;;;10.47;5.03;;;5.70;86.20;;;;;;5112922;28;20368;-78
2021/01/22 11:19:51;;;;;;;11.03;4.77;;;5.70;85.30;;;;;;5112213;28;20436;-78
2021/01/22 11:22:16;;;;;;;9.30;4.50;;;5.80;86.20;;;;;;5112772;28;20449;-77
2021/01/22 11:24:42;;;;;;;11.60;5.00;;;5.70;84.90;;;;;;5114202;28;20395;-78
2021/01/22 11:27:08;;;;;;;13.73;5.23;;;5.70;85.20;;;;;;5112649;28;20478;-78
2021/01/22 11:29:33;;;;;;;7.90;4.55;;;5.70;84.70;;;;;;5114372;28;20384;-78
2021/01/22 11:31:59;;;;;;;10.50;4.78;;;5.70;84.70;;;;;;5112903;28;20883;-78
2021/01/22 11:34:25;;;;;;;14.50;4.80;;;5.80;85.30;;;;;;5114230;28;20377;-78
2021/01/22 11:36:50;;;;;;;12.57;4.30;;;5.80;84.20;;;;;;5113284;28;20404;-78
2021/01/22 11:39:16;;;;;;;13.55;4.28;;;5.70;84.40;;;;;;5112731;28;20956;-78
2021/01/22 11:41:41;;;;;;;8.57;4.33;;;5.70;83.90;;;;;;5113829;28;20382;-78
2021/01/22 11:44:09;;;;;;;10.75;4.72;;;5.80;84.60;;;;;;5114145;28;20384;-78
2021/01/22 11:46:36;;;;;;;11.35;4.53;;;5.80;83.60;;;;;;5113298;28;20436;-78
2021/01/22 11:49:01;;;;;;;10.68;4.40;;;5.80;82.70;;;;;;5113879;28;20376;-77
2021/01/22 11:51:27;;;;;;;11.50;4.00;;;5.70;83.10;;;;;;5112452;28;20429;-78
2021/01/22 11:53:52;;;;;;;14.15;4.93;;;5.70;83.40;;;;;;5113929;28;20722;-79
2021/01/22 11:56:18;;;;;;;13.07;4.60;;;5.60;83.50;;;;;;5113436;28;20400;-78
2021/01/22 11:58:43;;;;;;;10.70;4.90;;;5.60;83.50;;;;;;5112047;28;20798;-78
2021/01/22 12:01:09;;;;;;;11.10;4.78;;;5.70;83.70;;;;;;5113702;28;20867;-79
2021/01/22 12:03:35;;;;;;;12.57;4.90;;;5.70;83.80;;;;;;5113656;28;20383;-78
2021/01/22 12:06:00;;;;;;;12.77;4.60;;;5.70;84.00;;;;;;5111828;28;20456;-78
2021/01/22 12:08:26;;;;;;;9.80;4.25;;;6.10;84.40;;;;;;5112297;28;20369;-78
2021/01/22 12:10:53;;;;;;;12.50;4.90;;;6.20;82.70;;;;;;5113063;28;20437;-79
2021/01/22 12:13:18;;;;;;;9.73;4.25;;;6.30;83.10;;;;;;5112644;28;21089;-79
2021/01/22 12:15:45;;;;;;;9.23;4.20;;;6.30;82.00;;;;;;5090774;28;20382;-79
2021/01/22 12:18:11;;;;;;;9.10;4.50;;;6.40;82.80;;;;;;5092309;28;20374;-79
2021/01/22 12:20:37;;;;;;;7.67;4.17;;;6.20;82.40;;;;;;5092805;28;20498;-78
2021/01/22 12:23:03;;;;;;;10.33;4.73;;;6.20;81.40;;;;;;5092642;28;20414;-79
2021/01/22 12:25:28;;;;;;;10.82;4.95;;;6.20;81.30;;;;;;5092880;28;20378;-80
2021/01/22 12:27:54;;;;;;;11.07;4.97;;;6.20;80.70;;;;;;5090763;28;20383;-79
2021/01/22 12:30:21;;;;;;;14.00;5.23;;;6.40;81.70;;;;;;5092516;28;20408;-78
2021/01/22 12:32:47;;;;;;;12.93;4.28;;;6.40;80.30;;;;;;5091004;28;20409;-78
2021/01/22 12:35:15;;;;;;;8.07;4.27;;;6.30;80.20;;;;;;5092408;28;20782;-79
2021/01/22 12:37:41;;;;;;;13.00;4.25;;;6.10;79.30;;;;;;5092299;28;20443;-79
2021/01/22 12:40:07;;;;;;;9.33;3.90;;;6.10;79.90;;;;;;5090940;28;20455;-80
2021/01/22 12:42:32;;;;;;;10.57;4.03;;;6.20;78.40;;;;;;5092397;28;20386;-79
2021/01/22 12:44:58;;;;;;;12.43;4.67;;;6.10;78.50;;;;;;5092547;28;20803;-80
2021/01/22 12:47:23;;;;;;;11.93;4.70;;;6.10;80.20;;;;;;5091836;28;20731;-79
2021/01/22 12:49:49;;;;;;;10.73;4.47;;;6.20;79.20;;;;;;5092276;28;20556;-79
2021/01/22 12:52:15;;;;;;;8.53;3.97;;;6.30;79.90;;;;;;5092263;28;20378;-80
2021/01/22 12:54:40;;;;;;;11.07;4.20;;;6.20;77.50;;;;;;5092028;28;20889;-80